createdAt,value
2023-07-19T00:00:08.414Z,1.80
2023-07-19T00:02:56.064Z,1.80
2023-07-19T00:05:24.010Z,2.10
2023-07-19T00:07:51.719Z,2.20
2023-07-19T00:10:19.654Z,2.30
2023-07-19T00:12:55.993Z,2.30
2023-07-19T00:15:25.949Z,2.10
2023-07-19T00:17:53.753Z,2.30
2023-07-19T00:20:21.917Z,2.40
2023-07-19T00:22:49.979Z,2.00
2023-07-19T00:25:18.237Z,2.20
2023-07-19T00:27:47.663Z,2.20
2023-07-19T00:30:15.934Z,2.00
2023-07-19T00:32:44.194Z,1.90
2023-07-19T00:35:12.037Z,2.70
2023-07-19T00:37:39.926Z,1.90
2023-07-19T00:40:08.407Z,2.30
2023-07-19T00:42:36.346Z,1.90
2023-07-19T00:45:05.319Z,2.60
2023-07-19T00:47:34.779Z,2.20
2023-07-19T00:50:04.380Z,2.30
2023-07-19T00:52:32.238Z,2.10
2023-07-19T00:55:01.715Z,2.20
2023-07-19T00:57:29.789Z,2.70
2023-07-19T00:59:57.680Z,2.40
2023-07-19T01:02:27.323Z,2.20
2023-07-19T01:04:55.155Z,2.10
2023-07-19T01:07:22.838Z,2.00
2023-07-19T01:09:51.432Z,1.70
2023-07-19T01:12:20.723Z,2.10
2023-07-19T01:14:48.371Z,2.20
2023-07-19T01:17:16.055Z,1.90
2023-07-19T01:19:45.516Z,2.40
2023-07-19T01:22:13.753Z,2.30
2023-07-19T01:24:42.122Z,2.10
2023-07-19T01:27:21.793Z,2.30
2023-07-19T01:29:50.990Z,2.20
2023-07-19T01:32:18.890Z,2.10
2023-07-19T01:34:46.631Z,2.20
2023-07-19T01:37:14.293Z,2.10
2023-07-19T01:39:42.086Z,2.20
2023-07-19T01:42:09.881Z,2.70
2023-07-19T01:44:37.659Z,2.20
2023-07-19T01:47:05.385Z,2.30
2023-07-19T01:49:33.041Z,2.40
2023-07-19T01:52:00.769Z,2.30
2023-07-19T01:54:28.428Z,2.10
2023-07-19T01:56:56.189Z,2.00
2023-07-19T01:59:23.874Z,2.00
2023-07-19T02:01:52.519Z,2.10
2023-07-19T02:04:20.724Z,2.50
2023-07-19T02:06:48.817Z,2.10
2023-07-19T02:09:16.528Z,2.10
2023-07-19T02:11:44.270Z,2.30
2023-07-19T02:14:12.305Z,2.10
2023-07-19T02:16:40.004Z,2.10
2023-07-19T02:19:08.873Z,2.20
2023-07-19T02:21:36.697Z,2.50
2023-07-19T02:24:05.041Z,2.10
2023-07-19T02:26:32.702Z,2.70
2023-07-19T02:29:00.430Z,1.70
2023-07-19T02:31:28.154Z,2.60
2023-07-19T02:33:55.947Z,2.00
2023-07-19T02:36:23.648Z,2.70
2023-07-19T02:38:51.344Z,2.30
2023-07-19T02:41:19.478Z,2.20
2023-07-19T02:43:47.432Z,2.50
2023-07-19T02:46:15.177Z,2.50
2023-07-19T02:48:42.896Z,2.30
2023-07-19T02:51:10.563Z,2.30
2023-07-19T02:53:38.609Z,2.60
2023-07-19T02:56:06.272Z,2.20
2023-07-19T02:58:33.962Z,2.20
2023-07-19T03:01:01.719Z,2.50
2023-07-19T03:03:30.942Z,2.10
2023-07-19T03:05:59.010Z,1.90
2023-07-19T03:08:26.734Z,2.00
2023-07-19T03:10:54.981Z,2.40
2023-07-19T03:13:22.937Z,2.20
2023-07-19T03:15:50.654Z,2.50
2023-07-19T03:18:18.361Z,2.40
2023-07-19T03:20:46.063Z,2.10
2023-07-19T03:23:13.781Z,1.80
2023-07-19T03:25:41.550Z,2.00
2023-07-19T03:28:09.373Z,2.10
2023-07-19T03:30:37.107Z,2.30
2023-07-19T03:33:04.934Z,2.00
2023-07-19T03:35:32.762Z,2.20
2023-07-19T03:38:00.585Z,2.20
2023-07-19T03:40:28.296Z,2.50
2023-07-19T03:42:55.986Z,2.10
2023-07-19T03:45:26.504Z,2.30
2023-07-19T03:47:54.424Z,2.00
2023-07-19T03:50:22.154Z,2.30
2023-07-19T03:52:49.832Z,2.70
2023-07-19T03:55:17.562Z,2.60
2023-07-19T03:57:45.229Z,2.40
2023-07-19T04:00:13.088Z,2.40
2023-07-19T04:02:40.896Z,2.50
2023-07-19T04:05:08.900Z,2.60
2023-07-19T04:07:36.614Z,2.20
2023-07-19T04:10:04.831Z,2.40
2023-07-19T04:12:32.484Z,2.20
2023-07-19T04:15:00.244Z,2.40
2023-07-19T04:17:28.558Z,2.30
2023-07-19T04:19:56.394Z,2.40
2023-07-19T04:22:24.110Z,2.80
2023-07-19T04:24:55.844Z,2.50
2023-07-19T04:27:23.657Z,2.70
2023-07-19T04:29:51.373Z,2.50
2023-07-19T04:32:19.298Z,2.80
2023-07-19T04:34:47.285Z,2.80
2023-07-19T04:37:14.975Z,2.70
2023-07-19T04:39:42.811Z,2.20
2023-07-19T04:42:10.536Z,3.00
2023-07-19T04:44:39.413Z,2.80
2023-07-19T04:47:07.386Z,2.70
2023-07-19T04:49:35.103Z,3.10
2023-07-19T04:52:02.807Z,2.80
2023-07-19T04:54:30.523Z,2.90
2023-07-19T04:56:58.446Z,2.70
2023-07-19T04:59:26.350Z,2.60
2023-07-19T05:01:54.070Z,3.10
2023-07-19T05:04:22.693Z,2.90
2023-07-19T05:06:51.234Z,2.70
2023-07-19T05:09:19.276Z,2.80
2023-07-19T05:11:47.012Z,2.80
2023-07-19T05:14:14.766Z,3.40
2023-07-19T05:16:42.554Z,2.10
2023-07-19T05:19:10.850Z,2.90
2023-07-19T05:21:38.994Z,2.60
2023-07-19T05:24:07.366Z,2.40
2023-07-19T05:26:35.329Z,2.80
2023-07-19T05:29:03.102Z,2.80
2023-07-19T05:31:30.913Z,3.20
2023-07-19T05:33:58.637Z,2.70
2023-07-19T05:36:26.384Z,3.60
2023-07-19T05:38:54.478Z,2.90
2023-07-19T05:41:22.479Z,3.10
2023-07-19T05:44:05.493Z,2.60
2023-07-19T05:46:37.798Z,3.00
2023-07-19T05:49:05.679Z,2.60
2023-07-19T05:51:33.395Z,3.00
2023-07-19T05:54:01.327Z,2.70
2023-07-19T05:56:29.190Z,2.20
2023-07-19T05:58:56.933Z,2.60
2023-07-19T06:01:30.577Z,2.70
2023-07-19T06:04:00.678Z,2.10
2023-07-19T06:06:28.865Z,2.70
2023-07-19T06:08:56.537Z,2.10
2023-07-19T06:11:24.483Z,2.40
2023-07-19T06:13:52.376Z,2.10
2023-07-19T06:16:20.254Z,2.00
2023-07-19T06:18:47.959Z,2.30
2023-07-19T06:21:15.772Z,2.30
2023-07-19T06:23:43.571Z,1.90
2023-07-19T06:26:11.775Z,1.90
2023-07-19T06:28:39.632Z,2.00
2023-07-19T06:31:07.662Z,1.80
2023-07-19T06:33:35.391Z,2.10
2023-07-19T06:36:03.239Z,1.80
2023-07-19T06:38:31.053Z,1.50
2023-07-19T06:41:03.450Z,1.80
2023-07-19T06:43:31.657Z,1.50
2023-07-19T06:45:59.757Z,1.80
2023-07-19T06:48:27.521Z,1.90
2023-07-19T06:50:55.422Z,1.30
2023-07-19T06:53:23.192Z,1.50
2023-07-19T06:55:53.624Z,1.50
2023-07-19T06:58:21.411Z,1.60
2023-07-19T07:00:50.149Z,1.30
2023-07-19T07:03:18.077Z,1.10
2023-07-19T07:05:49.340Z,1.30
2023-07-19T07:08:17.181Z,1.40
2023-07-19T07:10:45.237Z,1.20
2023-07-19T07:13:13.303Z,1.30
2023-07-19T07:15:41.130Z,1.10
2023-07-19T07:18:09.077Z,1.30
2023-07-19T07:20:37.419Z,1.00
2023-07-19T07:23:05.215Z,1.20
2023-07-19T07:25:34.428Z,1.30
2023-07-19T07:28:02.276Z,1.30
2023-07-19T07:30:30.040Z,1.20
2023-07-19T07:32:57.783Z,1.30
2023-07-19T07:35:25.465Z,1.20
2023-07-19T07:37:53.277Z,0.90
2023-07-19T07:40:21.180Z,1.50
2023-07-19T07:42:48.999Z,1.30
2023-07-19T07:45:16.752Z,1.20
2023-07-19T07:47:44.548Z,1.30
2023-07-19T07:50:12.410Z,1.30
2023-07-19T07:52:40.925Z,1.60
2023-07-19T07:55:09.326Z,1.40
2023-07-19T07:57:39.124Z,1.20
2023-07-19T08:00:08.134Z,1.40
2023-07-19T08:02:36.232Z,1.20
2023-07-19T08:05:06.661Z,1.20
2023-07-19T08:07:34.666Z,1.40
2023-07-19T08:10:03.145Z,1.90
2023-07-19T08:12:30.798Z,1.60
2023-07-19T08:14:58.561Z,1.70
2023-07-19T08:17:27.749Z,1.50
2023-07-19T08:19:55.619Z,1.70
2023-07-19T08:22:28.437Z,1.60
2023-07-19T08:25:03.096Z,1.80
2023-07-19T08:27:36.645Z,1.20
2023-07-19T08:30:10.340Z,1.30
2023-07-19T08:32:38.081Z,1.40
2023-07-19T08:35:06.728Z,1.40
2023-07-19T08:37:34.624Z,1.20
2023-07-19T08:40:02.508Z,1.60
2023-07-19T08:42:30.717Z,1.70
2023-07-19T08:44:59.053Z,1.60
2023-07-19T08:47:27.019Z,1.80
2023-07-19T08:49:55.179Z,1.80
2023-07-19T08:52:28.007Z,1.20
2023-07-19T08:57:23.666Z,1.20
2023-07-19T08:59:51.674Z,1.60
2023-07-19T09:02:19.586Z,1.30
2023-07-19T09:05:17.195Z,1.10
2023-07-19T09:07:51.095Z,1.50
2023-07-19T09:10:19.799Z,1.30
2023-07-19T09:12:48.522Z,1.40
2023-07-19T09:15:16.341Z,1.30
2023-07-19T09:17:46.808Z,1.10
2023-07-19T09:20:16.823Z,1.60
2023-07-19T09:22:45.172Z,1.20
2023-07-19T09:25:14.210Z,1.50
2023-07-19T09:27:44.477Z,1.30
2023-07-19T09:30:13.759Z,1.30
2023-07-19T09:32:42.517Z,1.40
2023-07-19T09:35:11.563Z,1.80
2023-07-19T09:37:39.577Z,1.40
2023-07-19T09:40:07.756Z,1.30
2023-07-19T09:42:40.415Z,1.60
2023-07-19T09:45:09.668Z,1.90
2023-07-19T09:47:38.147Z,1.20
2023-07-19T09:50:08.163Z,1.30
2023-07-19T09:52:39.298Z,1.40
2023-07-19T09:55:08.125Z,1.40
2023-07-19T09:57:39.883Z,1.50
2023-07-19T10:00:09.451Z,1.60
2023-07-19T10:02:37.297Z,1.20
2023-07-19T10:05:09.674Z,1.40
2023-07-19T10:07:50.607Z,1.50
2023-07-19T10:10:21.635Z,1.20
2023-07-19T10:12:51.885Z,1.40
2023-07-19T10:15:23.448Z,1.80
2023-07-19T10:17:51.439Z,1.20
2023-07-19T10:20:36.507Z,1.20
2023-07-19T10:23:09.466Z,1.20
2023-07-19T10:25:39.323Z,1.50
2023-07-19T10:28:12.396Z,1.10
2023-07-19T10:30:43.832Z,1.30
2023-07-19T10:33:31.850Z,1.40
2023-07-19T10:36:08.316Z,1.50
2023-07-19T10:38:37.778Z,1.80
2023-07-19T10:41:08.435Z,1.70
2023-07-19T10:46:09.802Z,1.50
2023-07-19T10:48:41.603Z,1.10
2023-07-19T10:51:13.034Z,1.50
2023-07-19T10:54:00.679Z,1.30
2023-07-19T10:56:29.507Z,1.40
2023-07-19T10:59:01.575Z,1.50
2023-07-19T11:01:31.965Z,1.30
2023-07-19T11:04:08.870Z,2.00
2023-07-19T11:06:55.666Z,1.60
2023-07-19T11:09:23.873Z,1.50
2023-07-19T11:11:52.502Z,1.30
2023-07-19T11:14:33.529Z,1.30
2023-07-19T11:17:01.324Z,1.30
2023-07-19T11:19:47.076Z,1.50
2023-07-19T11:22:22.326Z,1.50
2023-07-19T11:24:51.237Z,1.50
2023-07-19T11:27:20.437Z,1.50
2023-07-19T11:29:51.496Z,1.20
2023-07-19T11:32:22.260Z,1.60
2023-07-19T11:35:00.314Z,1.60
2023-07-19T11:37:31.811Z,1.40
2023-07-19T11:40:06.846Z,1.80
2023-07-19T11:42:42.696Z,1.40
2023-07-19T11:45:21.430Z,1.50
2023-07-19T11:47:50.720Z,1.40
2023-07-19T11:50:19.139Z,1.50
2023-07-19T11:52:48.310Z,1.60
2023-07-19T11:55:18.090Z,1.30
2023-07-19T11:57:49.226Z,1.50
2023-07-19T12:00:18.419Z,1.40
2023-07-19T12:02:47.273Z,1.40
2023-07-19T12:05:20.454Z,1.50
2023-07-19T12:07:51.673Z,1.70
2023-07-19T12:10:20.985Z,1.80
2023-07-19T12:12:52.240Z,1.90
2023-07-19T12:15:20.102Z,1.30
2023-07-19T12:17:47.872Z,1.30
2023-07-19T12:20:15.629Z,1.60
2023-07-19T12:22:44.862Z,1.30
2023-07-19T12:25:12.639Z,1.10
2023-07-19T12:27:40.849Z,1.60
2023-07-19T12:30:11.499Z,1.60
2023-07-19T12:32:40.135Z,1.50
2023-07-19T12:35:08.507Z,1.20
2023-07-19T12:37:36.362Z,2.00
2023-07-19T12:40:10.591Z,1.60
2023-07-19T12:42:38.724Z,2.00
2023-07-19T12:45:11.223Z,1.90
2023-07-19T12:47:39.622Z,1.70
2023-07-19T12:50:08.405Z,1.60
2023-07-19T12:52:50.172Z,1.40
2023-07-19T12:55:21.379Z,1.60
2023-07-19T12:57:50.090Z,1.70
2023-07-19T13:00:19.426Z,1.90
2023-07-19T13:02:48.491Z,1.40
2023-07-19T13:05:19.711Z,1.60
2023-07-19T13:07:49.070Z,1.70
2023-07-19T13:10:17.129Z,1.50
2023-07-19T13:12:45.012Z,1.50
2023-07-19T13:15:12.978Z,1.50
2023-07-19T13:17:42.628Z,1.60
2023-07-19T13:20:11.585Z,1.60
2023-07-19T13:22:40.874Z,1.30
2023-07-19T13:25:09.032Z,1.50
2023-07-19T13:27:37.526Z,1.60
2023-07-19T13:30:09.021Z,1.50
2023-07-19T13:32:37.162Z,1.40
2023-07-19T13:35:05.376Z,1.80
2023-07-19T13:40:12.012Z,1.60
2023-07-19T13:42:40.121Z,1.60
2023-07-19T13:45:08.513Z,2.00
2023-07-19T13:47:36.284Z,1.50
2023-07-19T13:50:04.617Z,1.80
2023-07-19T13:52:34.284Z,1.60
2023-07-19T13:55:02.755Z,1.80
2023-07-19T13:57:30.471Z,1.80
2023-07-19T13:59:58.804Z,2.40
2023-07-19T14:02:31.018Z,1.60
2023-07-19T14:05:00.777Z,1.60
2023-07-19T14:07:28.788Z,1.60
2023-07-19T14:09:56.658Z,1.30
2023-07-19T14:12:35.366Z,1.70
2023-07-19T14:15:09.553Z,1.50
2023-07-19T14:17:38.964Z,1.80
2023-07-19T14:20:08.451Z,1.80
2023-07-19T14:22:37.916Z,1.70
2023-07-19T14:25:08.121Z,1.60
2023-07-19T14:27:38.628Z,1.60
2023-07-19T14:30:08.098Z,1.60
2023-07-19T14:32:36.369Z,1.50
2023-07-19T14:35:07.574Z,1.40
2023-07-19T14:37:38.134Z,1.70
2023-07-19T14:40:07.141Z,1.60
2023-07-19T14:42:35.588Z,1.70
2023-07-19T14:45:11.516Z,1.60
2023-07-19T14:47:41.565Z,1.60
2023-07-19T14:50:10.471Z,1.60
2023-07-19T14:55:10.020Z,1.70
2023-07-19T14:57:38.472Z,1.90
2023-07-19T15:00:14.721Z,1.70
2023-07-19T15:02:43.272Z,1.70
2023-07-19T15:05:11.643Z,1.30
2023-07-19T15:07:44.244Z,1.40
2023-07-19T15:10:12.631Z,1.80
2023-07-19T15:12:40.519Z,1.60
2023-07-19T15:15:08.567Z,1.80
2023-07-19T15:17:37.315Z,2.10
2023-07-19T15:20:06.244Z,1.80
2023-07-19T15:22:34.235Z,1.60
2023-07-19T15:25:02.556Z,1.60
2023-07-19T15:27:30.376Z,1.40
2023-07-19T15:29:58.153Z,1.80
2023-07-19T15:32:26.085Z,1.80
2023-07-19T15:34:54.295Z,1.80
2023-07-19T15:37:21.983Z,1.90
2023-07-19T15:39:49.693Z,1.50
2023-07-19T15:42:17.389Z,1.80
2023-07-19T15:44:45.090Z,1.70
2023-07-19T15:47:12.983Z,1.90
2023-07-19T15:49:41.263Z,1.80
2023-07-19T15:52:12.846Z,1.70
2023-07-19T15:54:40.712Z,1.60
2023-07-19T15:57:08.750Z,1.60
2023-07-19T15:59:39.583Z,1.60
2023-07-19T16:02:09.695Z,1.90
2023-07-19T16:04:37.414Z,1.60
2023-07-19T16:07:05.754Z,1.60
2023-07-19T16:09:33.643Z,1.70
2023-07-19T16:12:01.435Z,1.70
2023-07-19T16:14:29.220Z,1.90
2023-07-19T16:16:57.257Z,1.80
2023-07-19T16:19:25.005Z,1.40
2023-07-19T16:21:52.736Z,1.80
2023-07-19T16:24:20.742Z,1.80
2023-07-19T16:26:51.681Z,1.70
2023-07-19T16:29:19.684Z,1.60
2023-07-19T16:31:47.511Z,1.50
2023-07-19T16:34:15.259Z,1.80
2023-07-19T16:36:43.365Z,1.90
2023-07-19T16:39:11.429Z,1.50
2023-07-19T16:41:39.562Z,1.80
2023-07-19T16:44:07.584Z,1.50
2023-07-19T16:46:35.420Z,1.60
2023-07-19T16:49:03.168Z,1.90
2023-07-19T16:51:30.999Z,1.60
2023-07-19T16:53:58.900Z,2.00
2023-07-19T16:56:26.915Z,1.80
2023-07-19T16:58:54.753Z,1.70
2023-07-19T17:01:25.862Z,2.30
2023-07-19T17:03:55.935Z,1.80
2023-07-19T17:06:23.888Z,1.80
2023-07-19T17:08:51.608Z,1.60
2023-07-19T17:11:19.747Z,1.60
2023-07-19T17:13:47.887Z,1.90
2023-07-19T17:16:15.618Z,1.70
2023-07-19T17:18:45.486Z,2.10
2023-07-19T17:21:14.315Z,2.20
2023-07-19T17:23:42.086Z,1.90
2023-07-19T17:26:09.827Z,2.20
2023-07-19T17:28:37.567Z,2.60
2023-07-19T17:31:05.571Z,2.10
2023-07-19T17:33:33.370Z,2.00
2023-07-19T17:36:01.078Z,2.30
2023-07-19T17:38:28.837Z,1.90
2023-07-19T17:40:56.605Z,2.00
2023-07-19T17:43:24.366Z,2.30
2023-07-19T17:45:52.220Z,1.90
2023-07-19T17:48:20.018Z,1.90
2023-07-19T17:50:47.978Z,2.00
2023-07-19T17:53:15.714Z,2.30
2023-07-19T17:55:43.581Z,1.80
2023-07-19T17:58:11.269Z,1.80
2023-07-19T18:00:38.984Z,1.70
2023-07-19T18:03:06.818Z,1.90
2023-07-19T18:05:34.577Z,1.80
2023-07-19T18:08:19.974Z,1.60
2023-07-19T18:10:50.256Z,1.50
2023-07-19T18:13:18.021Z,1.90
2023-07-19T18:15:48.041Z,1.80
2023-07-19T18:18:15.857Z,2.10
2023-07-19T18:20:43.950Z,1.70
2023-07-19T18:23:11.892Z,1.40
2023-07-19T18:25:39.921Z,1.90
2023-07-19T18:28:08.804Z,1.90
2023-07-19T18:30:36.764Z,1.80
2023-07-19T18:33:04.517Z,1.60
2023-07-19T18:35:32.945Z,1.80
2023-07-19T18:38:00.842Z,1.50
2023-07-19T18:40:28.532Z,1.60
2023-07-19T18:42:56.420Z,1.90
2023-07-19T18:45:24.288Z,1.70
2023-07-19T18:47:52.027Z,1.80
2023-07-19T18:50:19.800Z,2.00
2023-07-19T18:52:48.269Z,1.60
2023-07-19T18:55:16.070Z,1.90
2023-07-19T18:57:43.824Z,1.90
2023-07-19T19:00:11.886Z,1.90
2023-07-19T19:02:40.045Z,1.70
2023-07-19T19:05:08.216Z,1.70
2023-07-19T19:07:35.966Z,1.70
2023-07-19T19:10:04.025Z,1.80
2023-07-19T19:12:31.797Z,2.20
2023-07-19T19:14:59.693Z,2.00
2023-07-19T19:17:27.458Z,1.50
2023-07-19T19:19:55.550Z,1.60
2023-07-19T19:22:23.302Z,2.00
2023-07-19T19:24:51.242Z,2.10
2023-07-19T19:27:19.786Z,1.70
2023-07-19T19:29:47.960Z,2.00
2023-07-19T19:32:16.164Z,1.90
2023-07-19T19:34:43.998Z,2.20
2023-07-19T19:37:13.313Z,1.90
2023-07-19T19:39:41.475Z,1.80
2023-07-19T19:42:10.088Z,1.90
2023-07-19T19:44:37.979Z,1.80
2023-07-19T19:47:06.485Z,2.20
2023-07-19T19:49:34.955Z,1.90
2023-07-19T19:52:06.680Z,1.90
2023-07-19T19:54:35.413Z,2.00
2023-07-19T19:59:34.253Z,1.90
2023-07-19T20:04:33.132Z,2.20
2023-07-19T20:07:01.101Z,1.70
2023-07-19T20:09:31.462Z,2.20
2023-07-19T20:12:00.445Z,2.40
2023-07-19T20:14:28.459Z,2.00
2023-07-19T20:16:56.552Z,2.20
2023-07-19T20:21:57.366Z,2.20
2023-07-19T20:24:32.410Z,1.90
2023-07-19T20:27:04.822Z,2.20
2023-07-19T20:30:01.832Z,2.10
2023-07-19T20:39:54.168Z,2.00
2023-07-19T20:42:27.294Z,2.30
2023-07-19T20:44:55.904Z,1.90
2023-07-19T20:47:24.203Z,2.00
2023-07-19T20:49:52.303Z,2.40
2023-07-19T20:52:20.182Z,1.80
2023-07-19T20:54:48.233Z,2.20
2023-07-19T20:57:21.286Z,2.30
2023-07-19T20:59:49.722Z,2.10
2023-07-19T21:02:17.770Z,2.10
2023-07-19T21:04:45.747Z,2.00
2023-07-19T21:07:15.329Z,1.90
2023-07-19T21:09:43.140Z,2.10
2023-07-19T21:12:11.344Z,2.30
2023-07-19T21:14:39.133Z,2.40
2023-07-19T21:17:06.965Z,2.20
2023-07-19T21:19:34.822Z,2.20
2023-07-19T21:22:03.092Z,2.70
2023-07-19T21:24:32.240Z,2.80
2023-07-19T21:27:00.134Z,2.20
2023-07-19T21:29:34.930Z,2.90
2023-07-19T21:32:07.809Z,2.70
2023-07-19T21:34:36.538Z,3.00
2023-07-19T21:37:05.045Z,3.50
2023-07-19T21:39:32.917Z,3.10
2023-07-19T21:42:01.091Z,3.10
2023-07-19T21:44:28.952Z,2.90
2023-07-19T21:46:56.824Z,3.10
2023-07-19T21:49:25.130Z,3.30
2023-07-19T21:51:52.874Z,2.90
2023-07-19T21:54:21.709Z,2.80
2023-07-19T21:56:49.435Z,3.20
2023-07-19T21:59:17.147Z,2.90
2023-07-19T22:01:45.009Z,3.00
2023-07-19T22:04:13.008Z,3.30
2023-07-19T22:06:41.165Z,3.30
2023-07-19T22:09:09.713Z,3.50
2023-07-19T22:11:38.331Z,2.80
2023-07-19T22:14:11.302Z,2.70
2023-07-19T22:16:39.895Z,2.60
2023-07-19T22:19:07.604Z,2.60
2023-07-19T22:21:36.016Z,2.90
2023-07-19T22:24:04.692Z,2.80
2023-07-19T22:26:32.537Z,2.50
2023-07-19T22:29:02.690Z,2.80
2023-07-19T22:31:31.485Z,2.80
2023-07-19T22:33:59.336Z,2.90
2023-07-19T22:36:27.621Z,3.10
2023-07-19T22:38:55.664Z,3.60
2023-07-19T22:41:23.374Z,2.50
2023-07-19T22:43:51.126Z,2.30
2023-07-19T22:46:19.947Z,2.70
2023-07-19T22:48:51.599Z,3.00
2023-07-19T22:51:19.534Z,2.60
2023-07-19T22:53:48.152Z,2.70
2023-07-19T22:56:15.946Z,3.10
2023-07-19T22:58:43.649Z,2.50
2023-07-19T23:01:11.520Z,2.40
2023-07-19T23:03:39.363Z,2.70
2023-07-19T23:06:08.253Z,2.90
2023-07-19T23:08:35.928Z,3.00
2023-07-19T23:11:04.102Z,2.70
2023-07-19T23:13:31.884Z,2.80
2023-07-19T23:15:59.665Z,3.30
2023-07-19T23:18:27.505Z,3.00
2023-07-19T23:20:55.286Z,3.00
2023-07-19T23:23:23.056Z,3.00
2023-07-19T23:25:51.226Z,3.00
2023-07-19T23:28:19.051Z,3.10
2023-07-19T23:30:46.828Z,3.10
2023-07-19T23:33:14.795Z,3.20
2023-07-19T23:35:42.730Z,3.10
2023-07-19T23:38:12.979Z,3.00
2023-07-19T23:40:40.777Z,3.10
2023-07-19T23:43:08.500Z,3.10
2023-07-19T23:45:36.162Z,2.80
2023-07-19T23:48:04.727Z,2.70
2023-07-19T23:50:32.658Z,2.90
2023-07-19T23:53:00.526Z,2.70
2023-07-19T23:55:29.843Z,3.20
2023-07-19T23:57:57.543Z,3.00
